Time;durP1;ratioP1;P1;durP2;ratioP2;P2;SDS_P1;SDS_P2;PMS_P1;PMS_P2;Temp;Humidity;BMP_temperature;BMP_pressure;BME280_temperature;BME280_humidity;BME280_pressure;Samples;Min_cycle;Max_cycle;Signal;HPM_P1;HPM_P2
2023/06/28 00:01:20;;;;;;;7.57;3.70;;;;;;;21.23;58.18;99803.19;4477099;32;34093;-72
2023/06/28 00:03:49;;;;;;;5.30;3.22;;;;;;;21.40;57.66;99805.84;4475122;32;33214;-73
2023/06/28 00:06:16;;;;;;;7.50;3.60;;;;;;;20.93;59.34;99809.28;4477310;32;33698;-75
2023/06/28 00:08:45;;;;;;;8.17;3.83;;;;;;;20.39;61.43;99809.03;4468162;32;35286;-73
2023/06/28 00:11:13;;;;;;;6.35;3.25;;;;;;;20.62;60.43;99815.31;4477997;32;33493;-74
2023/06/28 00:13:41;;;;;;;5.68;3.47;;;;;;;20.69;60.21;99810.09;4477618;32;34086;-74
2023/06/28 00:16:08;;;;;;;5.55;3.42;;;;;;;20.55;60.47;99805.59;4474215;32;34336;-73
2023/06/28 00:18:36;;;;;;;7.03;3.40;;;;;;;20.75;59.47;99812.75;4466314;32;32190;-72
2023/06/28 00:21:03;;;;;;;7.87;3.70;;;;;;;20.90;58.85;99811.88;4473157;32;34498;-74
2023/06/28 00:23:32;;;;;;;7.55;3.50;;;;;;;20.86;58.81;99811.03;4471167;32;33806;-75
2023/06/28 00:26:00;;;;;;;6.18;3.20;;;;;;;20.65;59.48;99805.66;4475626;32;34347;-72
2023/06/28 00:28:27;;;;;;;5.93;3.15;;;;;;;20.50;60.17;99801.19;4474397;32;33789;-73
2023/06/28 00:30:55;;;;;;;5.72;3.42;;;;;;;20.33;60.19;99793.22;4474398;32;33870;-71
2023/06/28 00:33:23;;;;;;;6.07;3.47;;;;;;;20.26;59.93;99800.19;4468974;32;33304;-74
2023/06/28 00:35:51;;;;;;;6.87;3.53;;;;;;;20.37;59.37;99797.63;4473339;32;34477;-73
2023/06/28 00:38:18;;;;;;;6.68;3.10;;;;;;;20.47;58.92;99794.16;4479558;32;34292;-72
2023/06/28 00:40:48;;;;;;;7.00;3.65;;;;;;;20.43;59.01;99798.50;4477389;32;33609;-72
2023/06/28 00:43:15;;;;;;;7.35;3.47;;;;;;;20.99;57.61;99802.25;4469136;32;33262;-72
2023/06/28 00:45:43;;;;;;;5.62;3.40;;;;;;;21.43;56.51;99797.06;4477199;32;33610;-73
2023/06/28 00:48:10;;;;;;;8.57;3.87;;;;;;;20.88;57.95;99806.62;4467226;32;33649;-72
2023/06/28 00:50:38;;;;;;;6.00;3.47;;;;;;;20.92;57.81;99800.50;4452333;32;34039;-78
2023/06/28 00:53:07;;;;;;;6.12;3.78;;;;;;;20.55;59.92;99808.25;4476019;32;33854;-73
2023/06/28 00:55:35;;;;;;;5.57;3.50;;;;;;;20.46;60.38;99804.69;4471324;32;33679;-72
2023/06/28 00:58:03;;;;;;;6.00;3.50;;;;;;;20.45;60.86;99798.53;4472550;32;33712;-72
2023/06/28 01:00:30;;;;;;;7.75;3.65;;;;;;;20.89;58.87;99811.00;4461946;32;34456;-74
2023/06/28 01:03:00;;;;;;;7.32;3.80;;;;;;;20.90;58.71;99802.25;4467188;32;33116;-72
2023/06/28 01:05:29;;;;;;;6.15;3.58;;;;;;;20.70;59.33;99809.19;4479134;32;33671;-73
2023/06/28 01:07:56;;;;;;;8.02;3.97;;;;;;;20.26;60.88;99801.94;4474928;32;33737;-73
2023/06/28 01:10:25;;;;;;;8.40;3.50;;;;;;;20.13;61.07;99801.88;4467059;32;33635;-72
2023/06/28 01:12:53;;;;;;;8.35;4.10;;;;;;;20.13;61.02;99817.66;4465404;32;33075;-71
2023/06/28 01:15:20;;;;;;;5.93;3.67;;;;;;;20.17;60.53;99795.75;4470192;32;33676;-72
2023/06/28 01:17:50;;;;;;;7.62;3.95;;;;;;;20.75;58.48;99808.34;4470552;32;34619;-70
2023/06/28 01:20:18;;;;;;;6.40;3.65;;;;;;;20.76;58.49;99815.34;4458152;32;33747;-71
2023/06/28 01:22:55;;;;;;;6.15;3.70;;;;;;;20.65;58.63;99805.66;4465402;32;33864;-72
2023/06/28 01:25:22;;;;;;;7.97;4.25;;;;;;;20.54;59.28;99809.09;4478223;32;31973;-71
2023/06/28 01:27:50;;;;;;;6.68;3.83;;;;;;;20.56;59.41;99812.63;4474200;32;34659;-74
2023/06/28 01:30:23;;;;;;;6.00;3.73;;;;;;;20.67;58.76;99803.91;4470949;32;34030;-72
2023/06/28 01:32:51;;;;;;;7.50;4.10;;;;;;;20.52;59.48;99805.59;4474550;32;33089;-75
2023/06/28 01:35:19;;;;;;;6.75;3.87;;;;;;;20.33;60.43;99815.12;4477925;32;33476;-71
2023/06/28 01:37:49;;;;;;;6.87;3.90;;;;;;;20.54;59.34;99809.09;4470607;32;33740;-70
2023/06/28 01:40:17;;;;;;;6.57;3.92;;;;;;;20.31;60.85;99816.00;4462046;32;34697;-78
2023/06/28 01:42:45;;;;;;;6.10;3.80;;;;;;;20.47;60.31;99817.81;4464884;32;34144;-70
2023/06/28 01:45:12;;;;;;;5.90;3.53;;;;;;;20.51;59.78;99816.09;4451519;32;33463;-70
2023/06/28 01:47:40;;;;;;;7.68;3.60;;;;;;;20.59;58.89;99812.69;4470259;32;34481;-71
2023/06/28 01:50:08;;;;;;;8.25;3.62;;;;;;;20.26;59.74;99810.69;4465784;32;33461;-72
2023/06/28 01:52:36;;;;;;;6.10;3.42;;;;;;;20.31;59.47;99821.28;4455146;32;33296;-71
2023/06/28 01:55:04;;;;;;;7.95;3.67;;;;;;;20.00;60.18;99823.72;4465962;32;34479;-73
2023/06/28 01:57:32;;;;;;;7.43;3.62;;;;;;;19.91;60.73;99816.63;4481628;32;34111;-73
2023/06/28 02:00:04;;;;;;;7.28;3.95;;;;;;;20.02;60.10;99820.22;4470851;32;33934;-72
2023/06/28 02:02:43;;;;;;;6.32;3.78;;;;;;;20.28;59.04;99810.72;4477486;32;32472;-72
2023/06/28 02:05:11;;;;;;;6.15;3.60;;;;;;;20.23;59.04;99806.31;4475159;32;34375;-71
2023/06/28 02:07:40;;;;;;;6.30;3.65;;;;;;;20.46;58.08;99809.97;4488113;26;33706;-81
2023/06/28 02:10:10;;;;;;;5.85;3.45;;;;;;;20.32;58.97;99800.25;4475342;32;33273;-81
2023/06/28 02:12:37;;;;;;;6.70;3.58;;;;;;;20.23;59.27;99802.81;4473130;32;33716;-81
2023/06/28 02:15:06;;;;;;;7.60;3.90;;;;;;;20.47;57.77;99796.78;4474604;32;34236;-81
2023/06/28 02:17:35;;;;;;;6.60;3.30;;;;;;;20.48;58.21;99792.41;4473605;32;33313;-81
2023/06/28 02:20:04;;;;;;;6.90;3.63;;;;;;;20.31;58.72;99792.34;4473676;32;34057;-80
2023/06/28 02:22:32;;;;;;;8.40;3.90;;;;;;;19.89;59.87;99793.81;4468635;32;32631;-81
2023/06/28 02:25:00;;;;;;;5.62;3.47;;;;;;;19.93;59.84;99790.34;4477204;32;33464;-81
2023/06/28 02:27:27;;;;;;;6.63;3.27;;;;;;;19.61;60.85;99790.97;4479783;32;33558;-79
2023/06/28 02:29:56;;;;;;;6.20;3.63;;;;;;;20.25;59.02;99785.28;4473931;32;33726;-81
2023/06/28 02:32:30;;;;;;;6.00;3.33;;;;;;;20.34;58.61;99789.69;4483273;32;33379;-81
2023/06/28 02:34:58;;;;;;;5.65;3.40;;;;;;;20.09;60.03;99786.97;4480850;32;33157;-81
2023/06/28 02:37:26;;;;;;;7.57;3.92;;;;;;;19.91;60.98;99792.09;4470537;32;34280;-80
2023/06/28 02:39:53;;;;;;;6.90;3.60;;;;;;;20.14;59.77;99792.22;4460673;32;33024;-81
2023/06/28 02:42:21;;;;;;;7.12;3.80;;;;;;;20.04;60.23;99786.03;4474809;32;33341;-80
2023/06/28 02:44:49;;;;;;;6.30;3.60;;;;;;;20.07;60.33;99791.34;4480628;32;33592;-81
2023/06/28 02:47:16;;;;;;;6.40;3.50;;;;;;;19.83;61.16;99794.66;4471488;32;34605;-81
2023/06/28 02:49:44;;;;;;;6.40;3.87;;;;;;;19.43;62.84;99803.09;4483623;32;34391;-81
2023/06/28 02:52:12;;;;;;;8.17;3.67;;;;;;;19.69;62.09;99799.78;4481292;32;33525;-81
2023/06/28 02:54:39;;;;;;;6.15;3.78;;;;;;;19.76;62.08;99795.47;4473277;32;34364;-80
2023/06/28 02:57:09;;;;;;;5.68;3.40;;;;;;;19.52;62.80;99802.28;4480797;32;33979;-81
2023/06/28 02:59:37;;;;;;;5.55;3.35;;;;;;;19.42;63.17;99809.19;4480032;32;34064;-81
2023/06/28 03:02:05;;;;;;;7.28;3.80;;;;;;;19.48;62.87;99805.75;4480960;32;33377;-81
2023/06/28 03:04:39;;;;;;;7.35;3.70;;;;;;;19.74;61.84;99798.13;4484025;32;33151;-81
2023/06/28 03:07:14;;;;;;;5.78;3.47;;;;;;;20.15;60.20;99800.12;4483734;32;33670;-80
2023/06/28 03:09:42;;;;;;;5.87;3.47;;;;;;;19.90;61.09;99803.50;4476189;32;33620;-81
2023/06/28 03:12:10;;;;;;;6.65;3.80;;;;;;;19.80;60.91;99800.78;4476365;32;33303;-81
2023/06/28 03:14:38;;;;;;;6.57;3.47;;;;;;;19.84;60.69;99809.59;4475858;32;33850;-80
2023/06/28 03:17:05;;;;;;;8.80;3.70;;;;;;;20.19;59.68;99799.28;4474912;32;33474;-81
2023/06/28 03:19:34;;;;;;;7.37;3.90;;;;;;;20.18;59.01;99800.12;4480160;32;33647;-82
2023/06/28 03:22:01;;;;;;;6.78;3.42;;;;;;;20.45;57.83;99803.78;4475204;32;33297;-81
2023/06/28 03:24:29;;;;;;;7.60;3.53;;;;;;;20.46;58.36;99795.03;4483961;32;33946;-80
2023/06/28 03:26:56;;;;;;;6.50;3.20;;;;;;;20.16;59.27;99803.63;4471998;32;33727;-81
2023/06/28 03:29:24;;;;;;;6.13;3.20;;;;;;;20.36;58.09;99803.78;4471263;32;34616;-81
2023/06/28 03:31:55;;;;;;;6.75;3.42;;;;;;;20.27;58.29;99806.34;4484037;32;33009;-81
2023/06/28 03:34:24;;;;;;;4.93;3.20;;;;;;;20.40;57.08;99802.91;4474532;32;36110;-81
2023/06/28 03:36:53;;;;;;;6.22;3.35;;;;;;;20.07;59.06;99803.56;4480499;32;34579;-80
2023/06/28 03:39:31;;;;;;;6.80;3.37;;;;;;;20.04;59.12;99796.56;4471935;32;33131;-81
2023/06/28 03:41:59;;;;;;;5.35;3.00;;;;;;;20.15;58.35;99789.63;4476955;32;33077;-80
2023/06/28 03:44:26;;;;;;;5.62;3.30;;;;;;;19.95;58.62;99799.12;4477743;32;34296;-81
2023/06/28 03:46:54;;;;;;;6.53;3.65;;;;;;;20.12;58.24;99800.09;4472276;32;33987;-81
2023/06/28 03:49:21;;;;;;;6.37;3.37;;;;;;;20.28;57.33;99795.84;4481398;32;34071;-81
2023/06/28 03:51:49;;;;;;;6.53;3.42;;;;;;;20.46;56.53;99800.31;4473950;32;33071;-81
2023/06/28 03:54:16;;;;;;;7.80;3.43;;;;;;;20.21;57.60;99800.16;4483700;32;33850;-81
2023/06/28 03:56:49;;;;;;;8.30;3.53;;;;;;;20.30;57.44;99795.81;4473196;32;33498;-81
2023/06/28 03:59:16;;;;;;;7.00;3.60;;;;;;;19.89;59.01;99796.47;4481788;32;34238;-81
2023/06/28 04:01:44;;;;;;;7.43;3.50;;;;;;;19.73;59.94;99796.34;4473869;32;33308;-81
2023/06/28 04:04:16;;;;;;;6.30;3.45;;;;;;;19.94;59.69;99805.25;4475292;32;34268;-81
2023/06/28 04:06:45;;;;;;;6.10;3.42;;;;;;;19.84;60.11;99799.94;4472384;32;34540;-81
2023/06/28 04:09:13;;;;;;;6.20;3.45;;;;;;;20.13;59.03;99801.88;4481767;32;34206;-81
2023/06/28 04:11:41;;;;;;;5.80;3.50;;;;;;;19.91;59.78;99810.50;4472524;32;33435;-81
2023/06/28 04:14:08;;;;;;;7.43;3.97;;;;;;;20.13;59.19;99812.41;4483515;32;34570;-81
2023/06/28 04:16:35;;;;;;;8.43;3.87;;;;;;;20.07;59.33;99812.38;4472789;32;33538;-80
2023/06/28 04:19:04;;;;;;;8.30;3.70;;;;;;;20.52;57.50;99815.25;4472436;32;33554;-81
2023/06/28 04:21:33;;;;;;;8.20;3.80;;;;;;;20.15;59.15;99810.66;4470987;32;33767;-81
2023/06/28 04:24:00;;;;;;;6.53;3.62;;;;;;;20.15;58.77;99821.19;4474265;32;33825;-80
2023/06/28 04:26:28;;;;;;;7.78;3.95;;;;;;;20.43;58.21;99818.69;4474949;32;32934;-81
2023/06/28 04:28:55;;;;;;;6.75;3.62;;;;;;;20.23;58.67;99822.09;4477297;32;33700;-81
2023/06/28 04:31:24;;;;;;;6.82;3.60;;;;;;;20.06;59.45;99826.37;4472915;32;33441;-80
2023/06/28 04:33:54;;;;;;;6.65;3.45;;;;;;;20.37;58.57;99823.94;4474331;32;34015;-81
2023/06/28 04:36:22;;;;;;;5.85;3.42;;;;;;;20.38;58.10;99828.34;4478938;32;33660;-81
2023/06/28 04:38:52;;;;;;;5.40;3.30;;;;;;;20.19;58.98;99820.31;4471151;32;34194;-81
2023/06/28 04:41:22;;;;;;;5.57;3.23;;;;;;;20.39;57.99;99824.81;4480921;32;32724;-80
2023/06/28 04:43:54;;;;;;;7.43;3.33;;;;;;;20.24;58.63;99825.59;4477839;32;33895;-81
2023/06/28 04:46:22;;;;;;;4.87;3.15;;;;;;;20.30;58.17;99830.00;4480752;32;33103;-81
2023/06/28 04:48:51;;;;;;;5.40;3.22;;;;;;;20.56;57.41;99828.41;4483364;32;33644;-81
2023/06/28 04:51:19;;;;;;;6.25;3.62;;;;;;;20.29;58.57;99828.28;4478674;32;33359;-82
2023/06/28 04:53:48;;;;;;;6.47;3.27;;;;;;;20.58;57.20;99837.19;4477159;32;33133;-80
2023/06/28 04:56:15;;;;;;;8.25;3.53;;;;;;;20.65;57.67;99831.97;4480840;32;34024;-81
2023/06/28 04:58:43;;;;;;;7.65;3.50;;;;;;;20.98;56.28;99832.13;4472132;32;34006;-80
2023/06/28 05:01:10;;;;;;;6.37;3.58;;;;;;;20.93;56.22;99833.84;4481436;32;33554;-81
2023/06/28 05:03:38;;;;;;;8.43;3.83;;;;;;;21.04;56.03;99833.87;4478099;32;33929;-80
2023/06/28 05:06:06;;;;;;;6.35;3.70;;;;;;;20.78;57.31;99841.69;4474265;32;33541;-81
2023/06/28 05:08:35;;;;;;;6.80;3.60;;;;;;;20.83;56.96;99842.59;4480461;32;34371;-82
2023/06/28 05:11:02;;;;;;;6.85;3.60;;;;;;;20.77;57.18;99848.72;4481785;32;33741;-81
2023/06/28 05:13:30;;;;;;;8.55;3.83;;;;;;;20.79;57.35;99846.09;4475905;32;33633;-80
2023/06/28 05:15:58;;;;;;;6.57;3.85;;;;;;;20.88;56.96;99846.13;4468280;31;34435;-81
2023/06/28 05:18:25;;;;;;;6.60;3.83;;;;;;;21.15;55.89;99847.97;4483673;32;33763;-80
2023/06/28 05:20:53;;;;;;;7.15;3.90;;;;;;;20.82;57.35;99851.34;4484815;32;33462;-80
2023/06/28 05:23:21;;;;;;;7.40;3.70;;;;;;;21.04;56.17;99860.22;4481244;32;33597;-80
2023/06/28 05:25:48;;;;;;;7.57;4.10;;;;;;;20.87;56.94;99854.03;4475081;32;33316;-80
2023/06/28 05:28:16;;;;;;;6.62;3.58;;;;;;;21.27;54.75;99857.66;4479686;32;33789;-81
2023/06/28 05:30:44;;;;;;;8.30;3.58;;;;;;;20.79;56.05;99857.50;4476360;32;33226;-81
2023/06/28 05:33:12;;;;;;;7.45;3.90;;;;;;;20.88;56.41;99856.66;4477608;32;34420;-80
2023/06/28 05:35:39;;;;;;;8.45;4.05;;;;;;;20.86;56.90;99853.16;4482690;32;34433;-80
2023/06/28 05:38:07;;;;;;;6.57;3.70;;;;;;;20.87;56.37;99854.88;4484418;32;33230;-81
2023/06/28 05:40:35;;;;;;;6.53;3.75;;;;;;;20.62;57.65;99849.50;4483707;32;34065;-80
2023/06/28 05:43:02;;;;;;;7.95;3.72;;;;;;;20.85;56.91;99848.75;4483335;32;33471;-80
2023/06/28 05:45:30;;;;;;;8.82;3.80;;;;;;;21.06;56.09;99847.94;4478385;32;34362;-81
2023/06/28 05:47:59;;;;;;;8.00;3.85;;;;;;;20.80;57.23;99851.38;4472341;32;34018;-81
2023/06/28 05:50:27;;;;;;;6.45;3.70;;;;;;;21.12;56.11;99842.69;4472329;32;33297;-80
2023/06/28 05:52:55;;;;;;;6.43;3.65;;;;;;;21.07;56.43;99841.78;4479430;32;33746;-80
2023/06/28 05:55:22;;;;;;;7.65;3.10;;;;;;;21.14;55.79;99838.28;4474998;32;33636;-80
2023/06/28 05:57:50;;;;;;;6.37;3.35;;;;;;;21.08;55.17;99848.81;4479620;32;33481;-81
2023/06/28 06:00:19;;;;;;;5.62;3.15;;;;;;;21.08;55.19;99850.59;4479215;32;33246;-81
2023/06/28 06:02:47;;;;;;;8.57;3.33;;;;;;;21.36;53.71;99849.78;4474271;32;33435;-80
2023/06/28 06:05:15;;;;;;;6.00;3.00;;;;;;;21.45;53.04;99854.19;4476667;32;34510;-80
2023/06/28 06:07:42;;;;;;;6.75;2.90;;;;;;;21.10;54.24;99856.72;4477018;32;33480;-80
2023/06/28 06:10:10;;;;;;;6.78;2.90;;;;;;;21.52;51.74;99855.97;4477358;32;33358;-80
2023/06/28 06:12:37;;;;;;;6.00;3.00;;;;;;;21.29;53.59;99863.81;4472520;32;33411;-81
2023/06/28 06:15:06;;;;;;;6.15;2.80;;;;;;;21.15;53.07;99865.50;4475862;32;34065;-81
2023/06/28 06:17:34;;;;;;;6.90;2.72;;;;;;;21.13;53.37;99869.88;4478371;32;33789;-81
2023/06/28 06:20:01;;;;;;;5.20;2.72;;;;;;;21.77;50.81;99872.69;4476763;32;33077;-81
2023/06/28 06:22:29;;;;;;;4.97;2.60;;;;;;;21.32;52.50;99869.06;4483174;32;33656;-80
2023/06/28 06:24:57;;;;;;;6.20;2.75;;;;;;;21.39;52.68;99880.50;4483584;32;33907;-81
2023/06/28 06:27:24;;;;;;;6.65;2.97;;;;;;;21.68;50.66;99883.22;4478337;32;33666;-80
2023/06/28 06:29:52;;;;;;;6.10;2.83;;;;;;;21.52;51.13;99887.59;4480499;32;33609;-80
2023/06/28 06:32:20;;;;;;;5.95;2.62;;;;;;;21.27;51.41;99891.91;4476692;32;32549;-80
2023/06/28 06:34:48;;;;;;;5.03;2.37;;;;;;;21.40;51.18;99888.41;4479435;32;34579;-81
2023/06/28 06:37:15;;;;;;;5.12;2.40;;;;;;;21.47;50.69;99899.00;4475859;32;33840;-79
2023/06/28 06:39:43;;;;;;;6.12;2.40;;;;;;;21.58;50.50;99892.00;4479531;32;33336;-81
2023/06/28 06:42:10;;;;;;;4.18;2.00;;;;;;;21.89;48.66;99903.44;4480843;32;33734;-80
2023/06/28 06:44:40;;;;;;;4.07;2.00;;;;;;;21.59;48.08;99904.28;4483428;32;34457;-80
2023/06/28 06:47:08;;;;;;;4.72;1.95;;;;;;;21.47;48.37;99901.63;4477868;32;33590;-80
2023/06/28 06:49:35;;;;;;;3.83;1.87;;;;;;;21.45;48.79;99898.12;4480577;32;33917;-81
2023/06/28 06:52:03;;;;;;;4.72;1.60;;;;;;;21.30;49.24;99901.56;4482229;32;33443;-80
2023/06/28 06:54:31;;;;;;;5.25;1.70;;;;;;;21.56;47.19;99899.03;4481460;32;33256;-80
2023/06/28 06:56:59;;;;;;;4.03;1.50;;;;;;;21.42;47.16;99901.56;4471085;32;34297;-82
2023/06/28 06:59:26;;;;;;;4.23;1.50;;;;;;;21.40;47.67;99904.22;4478200;32;33038;-80
2023/06/28 07:01:58;;;;;;;4.28;1.60;;;;;;;21.19;48.04;99904.19;4477719;32;33171;-81
2023/06/28 07:04:26;;;;;;;4.00;1.65;;;;;;;21.29;47.82;99905.09;4476463;32;33589;-82
2023/06/28 07:06:54;;;;;;;5.13;1.60;;;;;;;21.35;47.79;99916.50;4470412;32;33741;-81
2023/06/28 07:09:22;;;;;;;3.30;1.40;;;;;;;21.26;48.97;99911.19;4479790;32;32880;-81
2023/06/28 07:11:49;;;;;;;4.35;1.42;;;;;;;21.35;48.32;99910.37;4476774;32;33564;-81
2023/06/28 07:14:17;;;;;;;4.32;1.60;;;;;;;21.65;46.42;99916.59;4478240;32;32374;-81
2023/06/28 07:16:45;;;;;;;3.17;1.45;;;;;;;21.47;47.68;99914.81;4475304;32;33675;-81
2023/06/28 07:19:13;;;;;;;3.95;1.40;;;;;;;21.43;47.41;99913.03;4476575;32;33967;-81
2023/06/28 07:21:43;;;;;;;5.40;1.42;;;;;;;21.49;47.52;99907.78;4476330;32;33139;-81
2023/06/28 07:24:11;;;;;;;4.53;1.58;;;;;;;21.37;47.66;99914.75;4480933;32;34395;-80
2023/06/28 07:26:39;;;;;;;5.68;1.33;;;;;;;21.41;47.49;99905.09;4474045;32;33656;-81
2023/06/28 07:29:06;;;;;;;4.50;1.35;;;;;;;21.50;47.27;99905.16;4480540;32;33060;-80
2023/06/28 07:31:34;;;;;;;3.20;1.37;;;;;;;21.77;47.03;99919.28;4473661;32;34732;-80
2023/06/28 07:34:04;;;;;;;8.13;1.50;;;;;;;21.82;46.93;99921.91;4483913;32;33636;-81
2023/06/28 07:36:32;;;;;;;3.77;1.30;;;;;;;21.51;48.15;99921.84;4475693;32;33950;-80
2023/06/28 07:39:00;;;;;;;4.62;1.30;;;;;;;21.64;47.60;99923.63;4482713;32;33309;-81
2023/06/28 07:41:28;;;;;;;5.90;1.40;;;;;;;21.72;46.92;99927.16;4474193;32;33643;-80
2023/06/28 07:43:55;;;;;;;5.07;1.48;;;;;;;21.70;47.18;99928.91;4477364;32;33848;-81
2023/06/28 07:46:23;;;;;;;4.22;1.45;;;;;;;21.46;48.22;99929.75;4472543;32;33760;-81
2023/06/28 07:48:56;;;;;;;4.90;1.60;;;;;;;21.38;48.90;99928.78;4466907;32;32391;-81
2023/06/28 07:51:23;;;;;;;4.43;1.48;;;;;;;21.59;48.94;99925.37;4482427;32;33447;-80
2023/06/28 07:53:51;;;;;;;5.93;1.45;;;;;;;21.39;49.48;99934.06;4477485;32;33827;-81
2023/06/28 07:56:19;;;;;;;3.20;1.42;;;;;;;21.86;47.94;99928.94;4474669;32;33774;-81
2023/06/28 07:58:48;;;;;;;5.50;1.50;;;;;;;21.86;47.69;99928.94;4471819;32;31830;-80
2023/06/28 08:01:17;;;;;;;4.03;1.50;;;;;;;21.78;48.29;99921.00;4481858;32;33494;-80
2023/06/28 08:03:45;;;;;;;3.22;1.30;;;;;;;21.85;47.08;99927.19;4483333;32;33600;-80
2023/06/28 08:06:12;;;;;;;4.62;1.52;;;;;;;21.62;48.30;99932.44;4474027;32;33249;-81
2023/06/28 08:08:39;;;;;;;4.65;1.50;;;;;;;21.79;47.78;99921.00;4461150;32;33714;-81
2023/06/28 08:11:07;;;;;;;4.78;1.62;;;;;;;21.58;48.33;99913.09;4472244;32;34035;-80
2023/06/28 08:13:35;;;;;;;4.37;1.50;;;;;;;21.78;48.41;99919.25;4480888;32;34368;-80
2023/06/28 08:16:03;;;;;;;4.55;1.60;;;;;;;21.68;48.60;99914.84;4476620;32;33636;-81
2023/06/28 08:18:31;;;;;;;3.43;1.23;;;;;;;21.93;46.85;99905.19;4476817;32;33350;-80
2023/06/28 08:20:58;;;;;;;3.65;1.40;;;;;;;22.00;46.40;99908.72;4475825;32;33583;-81
2023/06/28 08:23:25;;;;;;;2.78;1.40;;;;;;;21.86;46.90;99910.47;4480513;32;34651;-77
2023/06/28 08:25:53;;;;;;;4.55;1.20;;;;;;;21.71;46.97;99906.97;4476720;32;33857;-81
2023/06/28 08:28:22;;;;;;;5.28;1.50;;;;;;;21.77;47.53;99908.72;4466477;32;33161;-82
2023/06/28 08:30:49;;;;;;;4.35;1.60;;;;;;;22.09;46.96;99906.06;4479378;32;34451;-81
2023/06/28 08:33:17;;;;;;;3.62;1.33;;;;;;;21.89;48.09;99911.34;4478878;32;33469;-81
2023/06/28 08:35:44;;;;;;;4.65;1.58;;;;;;;22.07;46.75;99915.75;4476946;32;34496;-81
2023/06/28 08:38:12;;;;;;;6.68;1.42;;;;;;;22.23;45.72;99918.38;4474570;32;33086;-81
2023/06/28 08:40:40;;;;;;;4.68;1.40;;;;;;;21.46;49.24;99907.78;4480492;32;33734;-81
2023/06/28 08:43:09;;;;;;;3.78;1.50;;;;;;;22.07;47.75;99910.47;4476416;31;33711;-81
2023/06/28 08:45:37;;;;;;;4.32;1.50;;;;;;;22.12;48.15;99911.34;4475104;32;33686;-81
2023/06/28 08:48:04;;;;;;;3.92;1.52;;;;;;;22.48;46.73;99899.00;4478118;32;33303;-86
2023/06/28 08:50:51;;;;;;;4.62;1.40;;;;;;;22.43;46.47;99900.78;4470078;32;33896;-80
2023/06/28 08:53:21;;;;;;;4.50;1.30;;;;;;;22.43;46.29;99894.66;4476257;32;34200;-81
2023/06/28 08:55:49;;;;;;;3.47;1.40;;;;;;;22.28;46.79;99892.91;4480491;32;33583;-79
2023/06/28 08:58:16;;;;;;;4.85;1.60;;;;;;;22.25;47.81;99892.91;4476668;32;33325;-79
2023/06/28 09:00:45;;;;;;;5.57;1.70;;;;;;;22.35;47.19;99894.66;4470775;32;33932;-81
2023/06/28 09:03:15;;;;;;;5.72;1.77;;;;;;;22.04;48.45;99889.38;4470902;32;33102;-81
2023/06/28 09:05:44;;;;;;;5.20;1.55;;;;;;;22.44;47.17;99891.09;4476811;32;34185;-75
2023/06/28 09:08:12;;;;;;;4.32;1.60;;;;;;;22.09;50.25;99890.25;4474002;32;33290;-80
2023/06/28 09:10:40;;;;;;;7.00;1.60;;;;;;;22.09;50.30;99892.88;4467749;32;33788;-82
2023/06/28 09:13:08;;;;;;;4.62;1.50;;;;;;;22.21;49.14;99891.97;4472141;32;34393;-81
2023/06/28 09:15:36;;;;;;;3.70;1.50;;;;;;;22.57;45.91;99884.91;4471730;32;32462;-81
2023/06/28 09:18:04;;;;;;;3.58;1.60;;;;;;;22.76;46.38;99883.97;4470436;32;33807;-82
2023/06/28 09:20:32;;;;;;;5.03;1.50;;;;;;;22.59;47.11;99880.50;4467842;32;33741;-82
2023/06/28 09:23:00;;;;;;;4.75;1.67;;;;;;;22.64;48.02;99877.84;4469921;32;33788;-84
2023/06/28 09:25:29;;;;;;;3.65;1.40;;;;;;;22.84;46.19;99870.75;4475547;32;33233;-81
2023/06/28 09:27:57;;;;;;;2.85;1.40;;;;;;;22.67;48.08;99875.22;4473656;32;33114;-80
2023/06/28 09:30:40;;;;;;;3.00;1.40;;;;;;;22.67;47.82;99867.28;4472158;32;32685;-81
2023/06/28 09:33:08;;;;;;;4.43;1.40;;;;;;;23.36;44.62;99869.63;4478671;32;33843;-80
2023/06/28 09:35:36;;;;;;;3.92;1.37;;;;;;;23.27;44.25;99869.69;4471604;32;34333;-80
2023/06/28 09:38:07;;;;;;;3.28;1.37;;;;;;;23.56;43.40;99869.47;4478657;32;33407;-81
2023/06/28 09:40:35;;;;;;;4.78;1.40;;;;;;;23.35;44.75;99867.84;4472066;32;34056;-81
2023/06/28 09:43:03;;;;;;;2.97;1.33;;;;;;;23.18;45.03;99867.97;4471154;32;33702;-81
2023/06/28 09:45:32;;;;;;;4.53;1.42;;;;;;;23.68;44.28;99861.47;4471750;32;33799;-82
2023/06/28 09:48:02;;;;;;;3.22;1.67;;;;;;;23.44;45.15;99866.94;4472084;32;34831;-79
2023/06/28 09:50:47;;;;;;;2.35;1.20;;;;;;;23.89;43.04;99864.84;4481308;32;33642;-82
2023/06/28 09:53:19;;;;;;;3.92;1.20;;;;;;;23.96;42.28;99850.69;4476879;32;33970;-80
2023/06/28 09:55:49;;;;;;;4.22;1.40;;;;;;;23.94;41.38;99863.06;4473494;32;33828;-81
2023/06/28 09:58:18;;;;;;;3.50;1.30;;;;;;;23.84;41.35;99853.44;4473744;32;32311;-82
2023/06/28 10:00:47;;;;;;;3.47;1.42;;;;;;;23.87;41.48;99856.06;4476407;32;33082;-81
2023/06/28 10:03:16;;;;;;;3.42;1.35;;;;;;;24.06;41.27;99856.75;4476463;32;34386;-84
2023/06/28 10:05:45;;;;;;;3.37;1.02;;;;;;;23.95;41.62;99854.22;4476936;32;33332;-84
2023/06/28 10:08:14;;;;;;;3.67;1.25;;;;;;;24.19;39.58;99855.75;4475618;32;33145;-81
2023/06/28 10:10:44;;;;;;;3.22;0.98;;;;;;;24.32;38.86;99859.16;4472318;31;33425;-79
2023/06/28 10:13:16;;;;;;;3.23;1.00;;;;;;;24.34;39.18;99866.19;4479030;32;33758;-81
2023/06/28 10:15:55;;;;;;;4.80;1.30;;;;;;;24.29;39.95;99859.19;4472289;32;31897;-82
2023/06/28 10:18:24;;;;;;;4.55;1.42;;;;;;;24.52;38.50;99865.13;4475731;32;33210;-82
2023/06/28 10:20:52;;;;;;;4.32;1.20;;;;;;;24.45;38.67;99854.59;4484148;32;33493;-82
2023/06/28 10:23:19;;;;;;;3.83;1.20;;;;;;;24.38;38.76;99859.09;4480274;32;34427;-82
2023/06/28 10:25:47;;;;;;;3.85;1.15;;;;;;;24.64;39.41;99857.94;4474256;32;33860;-80
2023/06/28 10:28:15;;;;;;;4.15;1.10;;;;;;;24.69;38.64;99856.13;4471072;32;33320;-80
2023/06/28 10:30:42;;;;;;;3.90;1.08;;;;;;;25.05;38.71;99856.53;4473137;32;34287;-81
2023/06/28 10:33:10;;;;;;;3.33;1.23;;;;;;;25.27;38.30;99850.09;4476668;32;33915;-81
2023/06/28 10:35:38;;;;;;;2.60;1.00;;;;;;;25.72;36.87;99840.56;4465848;32;32326;-80
2023/06/28 10:38:12;;;;;;;3.00;1.00;;;;;;;26.02;35.74;99842.72;4466451;32;31501;-80
2023/06/28 10:40:40;;;;;;;3.53;1.20;;;;;;;26.19;34.49;99836.22;4478933;32;33688;-83
2023/06/28 10:43:20;;;;;;;3.20;1.00;;;;;;;25.89;35.47;99827.88;4475195;32;34639;-81
2023/06/28 10:45:51;;;;;;;3.23;0.97;;;;;;;26.13;35.28;99828.38;4465233;32;31312;-82
2023/06/28 10:48:20;;;;;;;4.00;1.00;;;;;;;26.74;34.34;99824.53;4472944;32;32793;-81
2023/06/28 10:50:49;;;;;;;3.40;0.90;;;;;;;26.58;35.05;99821.28;4481825;32;33568;-80
2023/06/28 10:53:20;;;;;;;1.98;0.88;;;;;;;26.54;34.32;99813.41;4474805;32;32994;-80
2023/06/28 10:56:07;;;;;;;3.62;1.05;;;;;;;26.87;33.77;99815.41;4477654;32;33573;-82
2023/06/28 10:58:38;;;;;;;2.97;1.00;;;;;;;26.99;33.73;99818.69;4472157;32;32707;-82
2023/06/28 11:01:35;;;;;;;3.30;1.00;;;;;;;27.03;33.65;99817.72;4476094;32;34174;-81
2023/06/28 11:04:21;;;;;;;4.60;1.00;;;;;;;27.28;34.12;99826.03;4465548;32;32678;-81
2023/06/28 11:07:03;;;;;;;3.03;1.00;;;;;;;27.39;32.12;99825.75;4480827;32;33451;-81
2023/06/28 11:09:31;;;;;;;3.00;1.17;;;;;;;27.35;33.50;99818.78;4475771;32;32185;-81
2023/06/28 11:11:59;;;;;;;4.00;1.00;;;;;;;27.30;33.62;99826.00;4477338;32;34574;-81
2023/06/28 11:14:30;;;;;;;2.92;1.05;;;;;;;27.76;33.69;99819.56;4477553;32;33587;-81
2023/06/28 11:17:11;;;;;;;4.33;1.10;;;;;;;27.90;32.02;99820.09;4477009;32;33061;-80
2023/06/28 11:19:39;;;;;;;4.18;1.20;;;;;;;27.85;32.02;99813.97;4473501;32;33274;-80
2023/06/28 11:22:07;;;;;;;3.37;1.10;;;;;;;27.81;33.33;99812.31;4478743;32;34147;-81
2023/06/28 11:24:37;;;;;;;3.12;0.98;;;;;;;28.16;33.09;99808.75;4480286;32;34057;-81
2023/06/28 11:27:10;;;;;;;2.80;1.08;;;;;;;28.04;31.51;99820.59;4474559;32;33490;-81
2023/06/28 11:29:57;;;;;;;4.97;1.30;;;;;;;27.88;32.78;99811.28;4470480;32;34379;-80
2023/06/28 11:32:27;;;;;;;1.83;0.90;;;;;;;28.31;31.53;99807.44;4476586;32;33090;-81
2023/06/28 11:34:57;;;;;;;3.30;1.00;;;;;;;28.35;31.46;99803.78;4477308;32;33589;-80
2023/06/28 11:37:25;;;;;;;2.60;0.90;;;;;;;28.40;32.01;99801.00;4471343;32;34455;-79
2023/06/28 11:39:53;;;;;;;2.40;0.90;;;;;;;28.01;32.21;99799.41;4478416;32;33242;-80
2023/06/28 11:42:21;;;;;;;3.60;1.08;;;;;;;28.24;31.12;99792.56;4476422;32;33676;-80